Time;durP1;ratioP1;P1;durP2;ratioP2;P2;SDS_P1;SDS_P2;PMS_P1;PMS_P2;Temp;Humidity;BMP_temperature;BMP_pressure;BME280_temperature;BME280_humidity;BME280_pressure;Samples;Min_cycle;Max_cycle;Signal;HPM_P1;HPM_P2
2023/08/07 00:00:50;;;;;;;31.88;5.45;;;41.80;54.00;;;;;;5029578;28;20057;-59
2023/08/07 00:03:18;;;;;;;32.42;5.05;;;41.70;52.00;;;;;;5028932;28;20049;-60
2023/08/07 00:05:48;;;;;;;29.40;4.20;;;41.60;52.50;;;;;;5028572;28;20053;-61
2023/08/07 00:08:15;;;;;;;25.58;4.53;;;41.40;51.90;;;;;;5029019;28;20047;-61
2023/08/07 00:10:41;;;;;;;23.58;4.30;;;41.50;52.10;;;;;;5028845;28;20058;-60
2023/08/07 00:13:07;;;;;;;24.80;4.78;;;41.40;52.60;;;;;;5028852;28;20053;-58
2023/08/07 00:15:34;;;;;;;20.08;4.68;;;41.30;51.90;;;;;;5028833;28;20135;-60
2023/08/07 00:18:01;;;;;;;27.40;4.63;;;41.40;51.40;;;;;;5029016;28;20087;-60
2023/08/07 00:20:27;;;;;;;19.92;3.70;;;41.30;52.10;;;;;;5029858;28;20578;-60
2023/08/07 00:22:53;;;;;;;16.33;4.05;;;41.30;50.20;;;;;;5028139;28;20065;-60
2023/08/07 00:25:20;;;;;;;20.23;3.85;;;41.30;49.80;;;;;;5029184;28;20080;-57
2023/08/07 00:27:46;;;;;;;16.42;3.63;;;41.20;50.20;;;;;;5029679;28;20055;-60
2023/08/07 00:30:13;;;;;;;16.98;4.00;;;41.20;51.50;;;;;;5029260;28;20456;-60
2023/08/07 00:32:39;;;;;;;19.95;4.22;;;41.20;50.50;;;;;;5029001;28;20061;-60
2023/08/07 00:35:08;;;;;;;17.88;3.83;;;41.20;50.80;;;;;;5028236;28;20054;-61
2023/08/07 00:37:34;;;;;;;21.67;4.57;;;41.10;52.10;;;;;;5028372;28;20709;-59
2023/08/07 00:40:01;;;;;;;22.33;4.10;;;41.20;53.20;;;;;;5027692;28;20699;-61
2023/08/07 00:42:28;;;;;;;16.95;4.15;;;41.10;51.30;;;;;;5027230;28;20076;-60
2023/08/07 00:44:54;;;;;;;23.25;4.57;;;40.90;51.90;;;;;;5029073;28;20075;-62
2023/08/07 00:47:21;;;;;;;25.50;4.43;;;40.80;53.20;;;;;;5028157;28;20066;-61
2023/08/07 00:49:48;;;;;;;30.63;5.00;;;40.70;53.50;;;;;;5027907;28;20784;-60
2023/08/07 00:52:15;;;;;;;16.42;4.55;;;40.70;54.30;;;;;;5028730;28;20082;-61
2023/08/07 00:54:42;;;;;;;18.65;4.20;;;40.70;55.00;;;;;;5027778;28;20087;-61
2023/08/07 00:57:15;;;;;;;21.63;5.00;;;40.70;55.00;;;;;;5027341;28;20457;-61
2023/08/07 00:59:41;;;;;;;19.33;4.88;;;40.70;55.50;;;;;;5028243;28;20083;-60
2023/08/07 01:02:09;;;;;;;21.73;4.88;;;40.60;56.10;;;;;;5027428;28;20077;-62
2023/08/07 01:04:35;;;;;;;24.42;4.70;;;40.60;56.40;;;;;;5027632;28;20263;-62
2023/08/07 01:07:02;;;;;;;22.90;5.30;;;40.50;56.30;;;;;;5028858;28;20055;-60
2023/08/07 01:09:28;;;;;;;19.45;5.10;;;40.40;56.70;;;;;;5026351;28;20055;-61
2023/08/07 01:11:57;;;;;;;15.05;4.53;;;40.40;57.00;;;;;;5027286;28;20523;-61
2023/08/07 01:14:31;;;;;;;31.77;6.13;;;40.20;57.70;;;;;;5028003;28;20111;-62
2023/08/07 01:17:03;;;;;;;22.27;5.13;;;40.20;58.10;;;;;;5028068;28;20396;-62
2023/08/07 01:19:30;;;;;;;33.53;4.90;;;40.10;57.80;;;;;;5027282;28;20164;-62
2023/08/07 01:22:17;;;;;;;20.17;4.53;;;40.00;58.30;;;;;;5027310;28;20422;-60
2023/08/07 01:24:45;;;;;;;23.17;5.07;;;40.00;58.60;;;;;;5026446;28;20546;-59
2023/08/07 01:27:18;;;;;;;23.88;5.40;;;40.00;58.70;;;;;;5027442;28;20075;-60
2023/08/07 01:29:50;;;;;;;27.52;6.03;;;39.90;58.20;;;;;;5027746;28;20061;-58
2023/08/07 01:32:38;;;;;;;21.95;4.80;;;39.90;58.00;;;;;;5027769;28;20071;-61
2023/08/07 01:35:05;;;;;;;25.42;4.35;;;39.70;56.90;;;;;;5026699;28;21565;-59
2023/08/07 01:37:36;;;;;;;16.27;4.15;;;39.70;57.00;;;;;;5025618;28;20060;-60
2023/08/07 01:40:06;;;;;;;25.85;4.28;;;39.70;56.60;;;;;;5028488;28;20167;-59
2023/08/07 01:42:33;;;;;;;24.55;4.38;;;39.60;57.20;;;;;;5027066;28;20065;-60
2023/08/07 01:45:00;;;;;;;18.38;4.53;;;39.60;57.80;;;;;;5029341;28;20149;-60
2023/08/07 01:47:26;;;;;;;28.13;4.78;;;39.60;57.60;;;;;;5027842;28;20060;-61
2023/08/07 01:49:53;;;;;;;20.55;4.35;;;39.60;57.60;;;;;;5027739;28;20413;-63
2023/08/07 01:52:21;;;;;;;14.80;4.20;;;39.70;57.60;;;;;;5026435;28;20072;-61
2023/08/07 01:54:47;;;;;;;22.27;5.10;;;39.70;57.40;;;;;;5027902;28;20062;-57
2023/08/07 01:57:13;;;;;;;23.77;5.40;;;39.70;57.20;;;;;;5027689;28;20057;-62
2023/08/07 01:59:40;;;;;;;21.55;4.80;;;39.80;56.70;;;;;;5027560;28;20073;-58
2023/08/07 02:02:06;;;;;;;22.80;4.72;;;39.90;55.10;;;;;;5026935;28;20074;-62
2023/08/07 02:04:33;;;;;;;24.33;4.30;;;39.50;52.40;;;;;;5041502;28;20089;-61
2023/08/07 02:06:59;;;;;;;16.77;4.22;;;39.30;52.80;;;;;;5026403;28;21375;-61
2023/08/07 02:09:26;;;;;;;17.80;3.83;;;39.10;53.50;;;;;;5027882;28;20055;-62
2023/08/07 02:11:52;;;;;;;24.90;4.32;;;39.10;53.90;;;;;;5026554;28;20065;-60
2023/08/07 02:14:18;;;;;;;19.17;4.63;;;39.00;54.30;;;;;;5024183;28;20143;-61
2023/08/07 02:16:45;;;;;;;21.70;3.97;;;38.80;53.50;;;;;;5026441;28;20535;-58
2023/08/07 02:19:11;;;;;;;21.35;4.78;;;38.70;53.50;;;;;;5025587;28;20100;-59
2023/08/07 02:21:38;;;;;;;20.33;4.75;;;38.60;53.00;;;;;;5026556;28;20090;-61
2023/08/07 02:24:04;;;;;;;26.98;4.82;;;38.50;52.80;;;;;;5026696;28;20061;-60
2023/08/07 02:26:31;;;;;;;16.80;4.40;;;38.40;53.30;;;;;;5027423;28;20074;-61
2023/08/07 02:28:57;;;;;;;21.92;4.55;;;38.30;53.40;;;;;;5025693;28;20074;-61
2023/08/07 02:31:23;;;;;;;48.75;5.60;;;38.20;53.60;;;;;;5026301;28;20073;-59
2023/08/07 02:33:50;;;;;;;11.98;3.10;;;38.10;53.40;;;;;;5026312;28;20070;-61
2023/08/07 02:36:16;;;;;;;12.52;3.53;;;38.10;52.40;;;;;;5026673;28;20088;-59
2023/08/07 02:38:42;;;;;;;17.08;4.10;;;38.00;51.80;;;;;;5027229;28;20529;-60
2023/08/07 02:41:09;;;;;;;23.02;3.85;;;37.90;51.80;;;;;;5027701;28;20627;-60
2023/08/07 02:43:35;;;;;;;16.17;3.65;;;37.90;51.80;;;;;;5027410;28;20071;-59
2023/08/07 02:46:02;;;;;;;21.20;3.92;;;37.80;52.60;;;;;;5026699;28;20078;-60
2023/08/07 02:48:28;;;;;;;15.85;3.67;;;37.80;53.10;;;;;;5026577;28;20061;-60
2023/08/07 02:50:54;;;;;;;16.33;3.90;;;37.70;53.50;;;;;;5027265;28;20544;-61
2023/08/07 02:53:21;;;;;;;16.95;3.83;;;37.70;54.90;;;;;;5025510;28;20530;-59
2023/08/07 02:55:47;;;;;;;18.90;4.45;;;37.60;55.40;;;;;;5026342;28;20106;-59
2023/08/07 02:58:13;;;;;;;19.77;4.50;;;37.50;56.70;;;;;;5026364;28;20100;-60
2023/08/07 03:00:40;;;;;;;22.52;4.88;;;37.50;57.80;;;;;;5025137;28;20544;-59
2023/08/07 03:03:06;;;;;;;17.88;4.38;;;37.40;58.50;;;;;;5025980;28;20093;-59
2023/08/07 03:05:33;;;;;;;18.90;4.60;;;37.30;59.10;;;;;;5025609;28;20094;-61
2023/08/07 03:07:59;;;;;;;21.77;5.07;;;37.20;59.80;;;;;;5026198;28;20068;-60
2023/08/07 03:10:25;;;;;;;20.95;5.38;;;37.20;60.30;;;;;;5026817;28;20619;-60
2023/08/07 03:12:52;;;;;;;19.73;5.25;;;37.10;61.00;;;;;;5026167;28;20181;-60
2023/08/07 03:15:18;;;;;;;25.33;5.15;;;37.10;61.90;;;;;;5026065;28;20149;-60
2023/08/07 03:17:44;;;;;;;18.00;4.75;;;37.00;62.40;;;;;;5025989;28;20083;-59
2023/08/07 03:20:11;;;;;;;16.63;5.03;;;37.00;63.30;;;;;;5026362;28;20094;-58
2023/08/07 03:22:38;;;;;;;18.17;4.90;;;37.00;63.90;;;;;;5025882;28;20076;-60
2023/08/07 03:25:04;;;;;;;19.23;5.30;;;36.80;64.80;;;;;;5025814;28;20201;-57
2023/08/07 03:27:31;;;;;;;23.75;4.95;;;36.80;65.90;;;;;;5026070;28;20076;-60
2023/08/07 03:29:57;;;;;;;22.38;5.25;;;36.70;66.30;;;;;;5026333;28;20098;-60
2023/08/07 03:32:23;;;;;;;24.58;5.70;;;36.70;67.00;;;;;;5025757;28;20563;-61
2023/08/07 03:34:50;;;;;;;22.55;5.28;;;36.60;67.50;;;;;;5025864;28;20091;-60
2023/08/07 03:37:16;;;;;;;21.00;4.80;;;36.50;68.20;;;;;;5026081;28;20090;-60
2023/08/07 03:39:47;;;;;;;24.08;5.30;;;36.50;68.40;;;;;;5028231;28;20139;-61
2023/08/07 03:42:17;;;;;;;26.90;5.50;;;36.50;68.90;;;;;;5026685;28;20098;-66
2023/08/07 03:44:43;;;;;;;19.90;5.97;;;36.40;69.40;;;;;;5026044;28;20502;-60
2023/08/07 03:47:09;;;;;;;26.77;6.00;;;36.30;70.10;;;;;;5025742;28;20072;-60
2023/08/07 03:49:36;;;;;;;23.98;5.10;;;36.40;70.40;;;;;;5025424;28;20137;-60
2023/08/07 03:52:02;;;;;;;22.42;5.63;;;36.30;70.30;;;;;;5025742;28;20087;-59
2023/08/07 03:54:29;;;;;;;21.90;5.10;;;36.30;70.60;;;;;;5024947;28;20447;-59
2023/08/07 03:56:55;;;;;;;24.33;6.13;;;36.20;71.30;;;;;;5024425;28;20086;-59
2023/08/07 03:59:22;;;;;;;32.15;6.32;;;36.10;71.10;;;;;;5025475;28;20085;-59
2023/08/07 04:01:48;;;;;;;23.58;6.00;;;36.10;71.40;;;;;;5025928;28;20575;-59
2023/08/07 04:04:15;;;;;;;21.13;5.53;;;36.10;70.90;;;;;;5025884;28;20288;-60
2023/08/07 04:06:42;;;;;;;29.98;6.47;;;36.00;70.40;;;;;;5025657;28;20554;-60
2023/08/07 04:09:10;;;;;;;26.20;5.80;;;36.00;70.50;;;;;;5025978;28;20088;-59
2023/08/07 04:11:36;;;;;;;43.70;6.47;;;36.00;70.90;;;;;;5025890;28;20176;-60
2023/08/07 04:14:03;;;;;;;22.33;4.88;;;35.90;70.60;;;;;;5025605;28;20489;-60
2023/08/07 04:16:31;;;;;;;31.23;6.20;;;35.90;70.90;;;;;;5026143;28;20135;-62
2023/08/07 04:18:57;;;;;;;24.48;5.32;;;35.90;71.30;;;;;;5025012;28;20548;-57
2023/08/07 04:21:24;;;;;;;19.98;5.10;;;35.90;71.70;;;;;;5026354;28;20175;-59
2023/08/07 04:23:50;;;;;;;27.27;6.25;;;35.80;72.10;;;;;;5026134;28;20073;-58
2023/08/07 04:26:17;;;;;;;27.52;5.78;;;35.80;72.50;;;;;;5025924;28;20561;-60
2023/08/07 04:28:43;;;;;;;31.38;6.68;;;35.80;72.90;;;;;;5024800;28;20083;-59
2023/08/07 04:31:09;;;;;;;21.92;6.13;;;35.70;73.30;;;;;;5025614;28;20085;-59
2023/08/07 04:33:36;;;;;;;19.90;5.43;;;35.70;73.70;;;;;;5024268;28;20138;-60
2023/08/07 04:36:02;;;;;;;22.90;6.10;;;35.70;74.20;;;;;;5024860;28;20547;-59
2023/08/07 04:38:29;;;;;;;21.23;5.85;;;35.60;74.50;;;;;;5027263;28;20471;-59
2023/08/07 04:40:55;;;;;;;21.48;5.28;;;35.60;75.10;;;;;;5029436;28;20069;-61
2023/08/07 04:43:21;;;;;;;21.10;6.22;;;35.50;75.60;;;;;;5028781;28;20557;-60
2023/08/07 04:45:48;;;;;;;24.50;6.03;;;35.50;75.90;;;;;;5028926;28;20115;-60
2023/08/07 04:48:17;;;;;;;26.45;6.35;;;35.50;76.10;;;;;;5028265;28;20095;-61
2023/08/07 04:50:43;;;;;;;28.95;5.53;;;35.40;77.10;;;;;;5029892;28;20192;-63
2023/08/07 04:53:10;;;;;;;23.35;5.25;;;35.40;77.80;;;;;;5028538;28;20085;-59
2023/08/07 04:55:36;;;;;;;21.95;5.85;;;35.20;78.90;;;;;;5028415;28;20580;-60
2023/08/07 04:58:03;;;;;;;23.25;5.95;;;35.20;79.60;;;;;;5028431;28;20461;-59
2023/08/07 05:00:29;;;;;;;21.30;6.00;;;35.10;80.40;;;;;;5027200;28;20187;-59
2023/08/07 05:02:56;;;;;;;27.20;6.20;;;35.10;81.00;;;;;;5027914;28;20167;-60
2023/08/07 05:05:23;;;;;;;30.73;6.40;;;35.10;81.40;;;;;;5027250;28;20128;-60
2023/08/07 05:07:49;;;;;;;30.13;6.72;;;35.10;82.00;;;;;;5028955;28;20167;-59
2023/08/07 05:10:16;;;;;;;25.10;6.15;;;35.10;82.80;;;;;;5030207;28;20543;-60
2023/08/07 05:12:42;;;;;;;28.02;5.50;;;35.00;83.60;;;;;;5028016;28;20124;-59
2023/08/07 05:15:09;;;;;;;31.55;7.45;;;34.90;84.40;;;;;;5027528;28;20496;-60
2023/08/07 05:17:35;;;;;;;29.25;7.07;;;34.90;85.00;;;;;;5029274;28;20117;-59
2023/08/07 05:20:02;;;;;;;33.15;6.63;;;34.80;85.50;;;;;;5028251;28;20092;-61
2023/08/07 05:22:29;;;;;;;27.55;6.32;;;34.90;86.20;;;;;;5028512;28;20203;-60
2023/08/07 05:24:55;;;;;;;31.25;6.45;;;34.90;86.70;;;;;;5027208;28;20104;-59
2023/08/07 05:27:22;;;;;;;25.75;6.22;;;34.90;87.50;;;;;;5026758;28;20076;-59
2023/08/07 05:29:48;;;;;;;28.27;6.32;;;34.70;88.40;;;;;;5026574;28;20079;-58
2023/08/07 05:32:15;;;;;;;30.40;6.45;;;34.80;89.00;;;;;;5027156;28;20081;-57
2023/08/07 05:34:42;;;;;;;27.08;7.15;;;34.80;89.60;;;;;;5026943;28;20078;-56
2023/08/07 05:37:08;;;;;;;21.88;6.53;;;34.70;90.20;;;;;;5026172;28;20084;-56
2023/08/07 05:39:35;;;;;;;59.95;6.45;;;34.70;90.70;;;;;;5028186;28;20097;-56
2023/08/07 05:42:02;;;;;;;35.63;6.72;;;34.60;91.20;;;;;;5027111;28;20133;-57
2023/08/07 05:44:30;;;;;;;31.05;6.85;;;34.60;92.30;;;;;;5025535;28;20084;-54
2023/08/07 05:46:56;;;;;;;127.45;12.32;;;34.60;92.30;;;;;;5026793;28;20073;-59
2023/08/07 05:49:23;;;;;;;103.72;12.95;;;34.60;92.70;;;;;;5026075;28;20072;-56
2023/08/07 05:51:49;;;;;;;76.65;11.60;;;34.50;93.20;;;;;;5026780;28;20084;-58
2023/08/07 05:54:16;;;;;;;29.15;7.03;;;34.40;93.90;;;;;;5026653;28;20088;-58
2023/08/07 05:56:44;;;;;;;31.08;7.50;;;34.30;94.50;;;;;;5024952;28;20473;-60
2023/08/07 05:59:10;;;;;;;29.50;6.80;;;34.40;95.00;;;;;;5026521;28;20098;-58
2023/08/07 06:01:36;;;;;;;45.92;7.95;;;34.40;95.20;;;;;;5027176;28;20076;-63
2023/08/07 06:04:03;;;;;;;35.13;7.35;;;34.40;95.70;;;;;;5025846;28;20200;-59
2023/08/07 06:06:30;;;;;;;30.58;7.75;;;34.20;96.30;;;;;;5026179;28;20086;-60
2023/08/07 06:08:56;;;;;;;29.45;6.35;;;34.20;96.80;;;;;;5026779;28;20534;-61
2023/08/07 06:11:23;;;;;;;32.25;7.50;;;34.10;97.20;;;;;;5025975;28;20087;-60
2023/08/07 06:13:50;;;;;;;32.65;7.18;;;34.10;97.70;;;;;;5026704;28;20528;-60
2023/08/07 06:16:17;;;;;;;29.38;6.97;;;34.10;98.10;;;;;;5025264;28;20546;-60
2023/08/07 06:18:43;;;;;;;27.63;6.35;;;34.10;98.40;;;;;;5026692;28;20092;-59
2023/08/07 06:21:10;;;;;;;27.25;7.18;;;33.90;98.70;;;;;;5026831;28;20092;-60
2023/08/07 06:23:37;;;;;;;29.85;7.43;;;34.10;98.90;;;;;;5026638;28;20113;-60
2023/08/07 06:26:04;;;;;;;30.38;7.30;;;34.10;99.00;;;;;;5026711;28;20159;-59
2023/08/07 06:28:34;;;;;;;33.35;7.30;;;34.00;99.30;;;;;;5026936;28;20565;-58
2023/08/07 06:31:04;;;;;;;29.05;7.45;;;33.90;99.80;;;;;;5027794;28;20549;-60
2023/08/07 06:33:31;;;;;;;33.25;7.97;;;33.90;99.90;;;;;;5027299;28;20076;-61
2023/08/07 06:35:58;;;;;;;29.60;7.40;;;33.90;99.90;;;;;;5026326;28;20078;-60
2023/08/07 06:38:24;;;;;;;33.08;7.40;;;33.90;99.90;;;;;;5026543;28;20461;-59
2023/08/07 06:40:51;;;;;;;30.00;7.47;;;33.90;99.90;;;;;;5027796;28;20127;-60
2023/08/07 06:43:18;;;;;;;29.48;7.45;;;33.80;99.90;;;;;;5026831;28;20085;-61
2023/08/07 06:45:49;;;;;;;29.67;7.40;;;33.90;99.90;;;;;;5025789;28;20073;-57
2023/08/07 06:48:16;;;;;;;28.77;6.72;;;33.80;99.90;;;;;;5025002;28;20088;-58
2023/08/07 06:50:42;;;;;;;26.45;6.72;;;33.80;99.90;;;;;;5026942;28;20086;-59
2023/08/07 06:53:08;;;;;;;37.58;7.75;;;33.80;99.90;;;;;;5026172;28;20135;-60
2023/08/07 06:55:35;;;;;;;27.90;6.97;;;33.80;99.90;;;;;;5026309;28;20176;-60
2023/08/07 06:58:01;;;;;;;31.42;7.60;;;33.70;99.90;;;;;;5026092;28;20398;-60
2023/08/07 07:00:28;;;;;;;27.08;6.55;;;33.80;99.90;;;;;;5025440;28;20082;-59
2023/08/07 07:02:54;;;;;;;37.75;7.28;;;33.70;99.90;;;;;;5025606;28;20081;-57
2023/08/07 07:05:20;;;;;;;30.73;6.63;;;33.70;99.90;;;;;;5027040;28;20097;-59
2023/08/07 07:07:47;;;;;;;23.40;6.65;;;33.70;99.90;;;;;;5028125;28;20090;-60
2023/08/07 07:10:13;;;;;;;27.58;7.22;;;33.60;99.90;;;;;;5027726;28;20555;-60
2023/08/07 07:12:40;;;;;;;29.42;7.43;;;33.50;99.90;;;;;;5026604;28;20167;-60
2023/08/07 07:15:06;;;;;;;30.23;7.38;;;33.50;99.90;;;;;;5026165;28;20095;-60
2023/08/07 07:17:33;;;;;;;30.88;7.50;;;33.50;99.90;;;;;;5024247;28;20584;-61
2023/08/07 07:19:59;;;;;;;23.38;6.72;;;33.50;99.90;;;;;;5026202;28;20100;-59
2023/08/07 07:22:25;;;;;;;34.10;7.90;;;33.50;99.90;;;;;;5026158;28;21820;-60
2023/08/07 07:24:53;;;;;;;37.78;7.72;;;33.40;99.90;;;;;;5025761;28;20077;-60
2023/08/07 07:27:19;;;;;;;29.63;6.90;;;33.40;99.90;;;;;;5025002;28;20088;-61
2023/08/07 07:29:45;;;;;;;33.63;7.78;;;33.40;99.90;;;;;;5025308;28;20454;-60
2023/08/07 07:32:12;;;;;;;31.80;7.90;;;33.40;99.90;;;;;;5025507;28;20231;-62
2023/08/07 07:34:38;;;;;;;32.22;8.90;;;33.30;99.90;;;;;;5026244;28;20085;-59
2023/08/07 07:37:05;;;;;;;28.38;6.80;;;33.30;99.90;;;;;;5027115;28;20443;-59
2023/08/07 07:39:31;;;;;;;35.47;8.00;;;33.30;99.90;;;;;;5025755;28;20093;-59
2023/08/07 07:41:58;;;;;;;35.03;8.27;;;33.30;99.90;;;;;;5025917;28;20092;-61
2023/08/07 07:44:24;;;;;;;32.22;7.35;;;33.30;99.90;;;;;;5025446;28;20116;-61
2023/08/07 07:46:50;;;;;;;25.23;7.03;;;33.20;99.90;;;;;;5025823;28;20134;-61
2023/08/07 07:49:17;;;;;;;24.75;6.97;;;33.20;99.90;;;;;;5025556;28;20561;-62
2023/08/07 07:51:44;;;;;;;27.35;7.43;;;33.10;99.90;;;;;;5024582;28;20094;-60
2023/08/07 07:54:11;;;;;;;31.63;8.07;;;33.20;99.90;;;;;;5025895;28;20168;-60
2023/08/07 07:56:37;;;;;;;25.45;7.10;;;33.10;99.90;;;;;;5025516;28;20098;-60
2023/08/07 07:59:03;;;;;;;28.52;8.02;;;33.10;99.90;;;;;;5026862;28;20096;-61
2023/08/07 08:01:30;;;;;;;35.00;7.30;;;33.10;99.90;;;;;;5025776;28;20084;-58
2023/08/07 08:03:56;;;;;;;29.58;7.30;;;33.10;99.90;;;;;;5026088;28;20107;-58
2023/08/07 08:06:22;;;;;;;40.45;7.78;;;33.10;99.90;;;;;;5025347;28;20427;-59
2023/08/07 08:08:49;;;;;;;32.72;8.10;;;33.10;99.90;;;;;;5025963;28;20085;-60
2023/08/07 08:11:15;;;;;;;33.10;7.75;;;33.10;99.90;;;;;;5026053;28;20553;-59
2023/08/07 08:13:42;;;;;;;39.40;9.10;;;33.10;99.90;;;;;;5028224;28;20085;-59
2023/08/07 08:16:08;;;;;;;31.30;7.93;;;33.10;99.90;;;;;;5029641;28;20081;-59
2023/08/07 08:18:35;;;;;;;31.85;7.75;;;33.00;99.90;;;;;;5029657;28;20106;-61
2023/08/07 08:21:01;;;;;;;33.15;8.82;;;32.90;99.90;;;;;;5030799;28;20081;-59
2023/08/07 08:23:27;;;;;;;34.92;8.45;;;32.80;99.90;;;;;;5030199;28;20077;-60
2023/08/07 08:25:54;;;;;;;31.55;7.68;;;32.80;99.90;;;;;;5030327;28;20557;-59
2023/08/07 08:28:20;;;;;;;30.35;8.20;;;32.70;99.90;;;;;;5030488;28;20096;-61
2023/08/07 08:30:48;;;;;;;32.97;7.38;;;32.60;99.90;;;;;;5029481;28;20131;-61
2023/08/07 08:33:15;;;;;;;35.00;7.85;;;32.70;99.90;;;;;;5029930;28;20503;-59
2023/08/07 08:35:41;;;;;;;30.90;7.78;;;32.80;99.90;;;;;;5030239;28;20104;-59
2023/08/07 08:38:08;;;;;;;35.42;9.65;;;32.80;99.90;;;;;;5030157;28;20180;-61
2023/08/07 08:40:37;;;;;;;35.92;8.30;;;32.70;99.90;;;;;;5030453;28;20119;-60
2023/08/07 08:43:05;;;;;;;34.53;8.57;;;32.60;99.90;;;;;;5029567;28;20077;-59
2023/08/07 08:45:33;;;;;;;35.72;7.90;;;32.50;99.90;;;;;;5029263;28;20224;-59
2023/08/07 08:48:03;;;;;;;32.47;8.10;;;32.50;99.90;;;;;;5028566;28;20137;-60
2023/08/07 08:50:30;;;;;;;35.28;8.25;;;32.50;99.90;;;;;;5029783;28;20081;-60
2023/08/07 08:52:58;;;;;;;33.33;8.73;;;32.50;99.90;;;;;;5028620;28;20073;-61
2023/08/07 08:55:25;;;;;;;28.33;7.55;;;32.40;99.90;;;;;;5028787;28;20076;-60
2023/08/07 08:57:53;;;;;;;34.35;8.63;;;32.40;99.90;;;;;;5028661;28;20495;-61
2023/08/07 09:00:25;;;;;;;30.98;8.25;;;32.30;99.90;;;;;;5028755;28;20100;-60
2023/08/07 09:02:52;;;;;;;29.83;7.85;;;32.30;99.90;;;;;;5028799;28;20079;-59
2023/08/07 09:05:20;;;;;;;37.95;9.38;;;32.40;99.90;;;;;;5028879;28;20097;-60
2023/08/07 09:07:50;;;;;;;34.20;8.65;;;32.30;99.90;;;;;;5027922;28;20112;-60
2023/08/07 09:10:17;;;;;;;33.50;8.90;;;32.20;99.90;;;;;;5029645;28;20095;-61
2023/08/07 09:13:08;;;;;;;40.72;9.02;;;32.30;99.90;;;;;;5029233;28;20542;-60
2023/08/07 09:15:39;;;;;;;39.92;8.88;;;32.20;99.90;;;;;;5026735;28;20442;-60
2023/08/07 09:18:11;;;;;;;32.05;8.13;;;32.30;99.90;;;;;;5028272;28;20172;-60
2023/08/07 09:20:39;;;;;;;37.72;8.40;;;32.20;99.90;;;;;;5027671;28;20179;-58
2023/08/07 09:23:06;;;;;;;31.95;8.57;;;32.10;99.90;;;;;;5027622;28;20073;-59
2023/08/07 09:25:33;;;;;;;34.42;7.63;;;32.10;99.90;;;;;;5027936;28;20069;-62
2023/08/07 09:28:05;;;;;;;32.10;7.85;;;32.10;99.90;;;;;;5027931;28;20214;-60
2023/08/07 09:30:34;;;;;;;38.28;8.18;;;32.20;99.90;;;;;;5028212;28;20076;-62
2023/08/07 09:33:02;;;;;;;36.92;8.93;;;32.00;99.90;;;;;;5027829;28;20168;-61
2023/08/07 09:35:31;;;;;;;36.53;9.25;;;32.00;99.90;;;;;;5027645;28;20479;-59
2023/08/07 09:37:57;;;;;;;30.35;7.70;;;32.00;99.90;;;;;;5027315;28;21357;-60
2023/08/07 09:40:24;;;;;;;43.55;9.32;;;32.00;99.90;;;;;;5028447;28;20151;-60
2023/08/07 09:42:52;;;;;;;35.17;8.10;;;32.00;99.90;;;;;;5028566;28;20418;-61
2023/08/07 09:45:27;;;;;;;29.38;8.13;;;31.90;99.90;;;;;;5028816;28;20138;-60
2023/08/07 09:48:01;;;;;;;31.20;8.02;;;31.90;99.90;;;;;;5028078;28;20113;-61
2023/08/07 09:50:29;;;;;;;34.70;8.20;;;31.80;99.90;;;;;;5026694;28;20442;-60
2023/08/07 09:52:57;;;;;;;36.70;8.65;;;31.90;99.90;;;;;;5027818;28;20092;-59
2023/08/07 09:55:25;;;;;;;40.47;9.30;;;31.90;99.90;;;;;;5028087;28;20481;-60
2023/08/07 09:57:52;;;;;;;37.28;9.60;;;31.90;99.90;;;;;;5027301;28;20085;-60
2023/08/07 10:00:19;;;;;;;32.65;9.10;;;31.80;99.90;;;;;;5027335;28;20097;-60
2023/08/07 10:02:47;;;;;;;40.53;8.65;;;31.90;99.90;;;;;;5027359;28;20076;-60
2023/08/07 10:05:14;;;;;;;36.70;9.15;;;31.90;99.90;;;;;;5027504;28;20525;-60
2023/08/07 10:07:41;;;;;;;34.58;8.50;;;31.90;99.90;;;;;;5026790;28;20084;-60
2023/08/07 10:10:09;;;;;;;36.20;8.20;;;31.90;99.90;;;;;;5026781;28;20096;-59
2023/08/07 10:12:37;;;;;;;34.47;8.50;;;31.90;99.90;;;;;;5026839;28;20222;-61
2023/08/07 10:15:04;;;;;;;39.72;8.68;;;31.80;99.90;;;;;;5027364;28;20084;-60
2023/08/07 10:17:31;;;;;;;35.10;7.97;;;31.80;99.90;;;;;;5026400;28;20077;-61
2023/08/07 10:19:58;;;;;;;34.90;7.68;;;31.80;99.90;;;;;;5027022;28;20096;-61
2023/08/07 10:22:27;;;;;;;35.05;7.88;;;31.80;99.90;;;;;;5027980;28;20081;-62
2023/08/07 10:24:56;;;;;;;39.22;8.63;;;31.80;99.90;;;;;;5027104;28;20446;-60
2023/08/07 10:27:25;;;;;;;34.63;8.80;;;31.80;99.90;;;;;;5025732;28;20091;-60
2023/08/07 10:29:53;;;;;;;34.58;8.43;;;31.70;99.90;;;;;;5025587;28;20077;-61
2023/08/07 10:32:22;;;;;;;36.75;8.43;;;31.80;99.90;;;;;;5026920;28;20089;-60
2023/08/07 10:34:52;;;;;;;38.90;8.82;;;31.80;99.90;;;;;;5026213;28;20089;-59
2023/08/07 10:37:40;;;;;;;31.08;7.90;;;31.80;99.90;;;;;;5026656;28;20089;-62
2023/08/07 10:40:11;;;;;;;34.15;8.25;;;31.70;99.90;;;;;;5026135;28;20588;-61
2023/08/07 10:42:55;;;;;;;40.47;9.52;;;31.70;99.90;;;;;;5026180;28;20104;-61
2023/08/07 10:45:22;;;;;;;33.95;8.43;;;31.70;99.90;;;;;;5027006;28;20709;-60
2023/08/07 10:48:05;;;;;;;40.25;8.07;;;31.70;99.90;;;;;;5026408;28;20097;-61
2023/08/07 10:51:00;;;;;;;38.10;8.93;;;31.70;99.90;;;;;;5027071;28;20076;-61
2023/08/07 10:53:32;;;;;;;39.45;8.95;;;31.60;99.90;;;;;;5026267;28;20578;-60
2023/08/07 10:56:40;;;;;;;34.35;7.72;;;31.60;99.90;;;;;;5026206;28;20656;-61
2023/08/07 10:59:11;;;;;;;41.97;8.27;;;31.60;99.90;;;;;;5026615;28;20155;-62
2023/08/07 11:01:40;;;;;;;44.90;9.23;;;31.60;99.90;;;;;;5026191;28;20438;-61
2023/08/07 11:04:12;;;;;;;29.35;8.32;;;31.70;99.90;;;;;;5025811;28;20099;-61
2023/08/07 11:06:40;;;;;;;32.95;7.63;;;31.70;99.90;;;;;;5027031;28;20084;-60
2023/08/07 11:09:10;;;;;;;37.70;8.77;;;31.60;99.90;;;;;;5026785;28;20504;-60
2023/08/07 11:11:47;;;;;;;35.95;8.50;;;31.60;99.90;;;;;;5026413;28;20112;-60
2023/08/07 11:14:18;;;;;;;33.05;8.00;;;31.50;99.90;;;;;;5024284;28;20142;-61
2023/08/07 11:16:46;;;;;;;32.10;7.45;;;31.50;99.90;;;;;;5026214;28;20134;-61
2023/08/07 11:19:17;;;;;;;34.55;7.82;;;31.50;99.90;;;;;;5025530;28;20186;-61
2023/08/07 11:21:44;;;;;;;35.65;9.25;;;31.40;99.90;;;;;;5026605;28;20069;-61
2023/08/07 11:24:15;;;;;;;35.80;8.73;;;31.50;99.90;;;;;;5026574;28;20596;-60
2023/08/07 11:26:46;;;;;;;33.42;9.32;;;31.50;99.90;;;;;;5026761;28;20085;-60
2023/08/07 11:29:17;;;;;;;37.38;9.30;;;31.50;99.90;;;;;;5026359;28;20073;-60
2023/08/07 11:31:44;;;;;;;30.90;7.90;;;31.50;99.90;;;;;;5027226;28;20083;-61
2023/08/07 11:34:11;;;;;;;33.30;8.20;;;31.50;99.90;;;;;;5026761;28;20077;-60
2023/08/07 11:36:42;;;;;;;35.83;8.68;;;31.50;99.90;;;;;;5026106;28;20163;-60
2023/08/07 11:39:09;;;;;;;29.60;7.35;;;31.40;99.90;;;;;;5025369;28;20581;-61
2023/08/07 11:41:35;;;;;;;28.50;7.22;;;31.50;99.90;;;;;;5025860;28;20497;-61
2023/08/07 11:44:02;;;;;;;32.03;7.07;;;31.50;99.90;;;;;;5026859;28;20077;-60
2023/08/07 11:46:29;;;;;;;29.90;7.22;;;31.50;99.90;;;;;;5026555;28;20095;-60
2023/08/07 11:48:56;;;;;;;27.23;6.32;;;31.50;99.90;;;;;;5028420;28;20084;-60
2023/08/07 11:51:23;;;;;;;33.15;7.22;;;31.50;99.90;;;;;;5030656;28;20566;-61
2023/08/07 11:53:50;;;;;;;29.40;8.00;;;31.50;99.90;;;;;;5030333;28;20099;-59
2023/08/07 11:56:17;;;;;;;30.55;6.53;;;31.50;99.90;;;;;;5031193;28;20088;-59
2023/08/07 11:58:46;;;;;;;29.00;6.75;;;31.50;99.90;;;;;;5030067;28;20167;-62
2023/08/07 12:01:14;;;;;;;28.08;6.15;;;31.50;99.90;;;;;;5030019;28;20143;-60
2023/08/07 12:04:16;;;;;;;25.33;6.30;;;31.50;99.90;;;;;;5030106;28;20131;-60
2023/08/07 12:07:02;;;;;;;27.92;6.60;;;31.50;99.90;;;;;;4992688;28;20248;-60
2023/08/07 12:09:30;;;;;;;28.83;6.97;;;31.50;99.90;;;;;;4990225;28;20240;-61
2023/08/07 12:11:58;;;;;;;29.10;6.88;;;31.50;99.90;;;;;;4988293;28;20085;-59
2023/08/07 12:14:31;;;;;;;26.27;6.47;;;31.50;99.90;;;;;;4992232;28;20082;-59
2023/08/07 12:17:00;;;;;;;29.48;6.32;;;31.50;99.90;;;;;;4989173;28;20090;-59
2023/08/07 12:19:37;;;;;;;32.13;6.88;;;31.40;99.90;;;;;;4990576;28;20105;-58
2023/08/07 12:22:06;;;;;;;24.40;6.75;;;31.40;99.90;;;;;;4990670;28;20151;-61
2023/08/07 12:24:32;;;;;;;32.38;6.85;;;31.50;99.90;;;;;;4992523;28;20093;-61
2023/08/07 12:26:58;;;;;;;25.05;6.10;;;31.50;99.90;;;;;;4992327;28;20447;-58
2023/08/07 12:29:28;;;;;;;25.70;6.22;;;31.40;99.90;;;;;;4992088;28;20120;-60
2023/08/07 12:31:55;;;;;;;31.30;7.28;;;31.30;99.90;;;;;;4992128;28;20081;-60
2023/08/07 12:34:22;;;;;;;23.80;5.88;;;31.30;99.90;;;;;;4993258;28;20089;-60
2023/08/07 12:36:48;;;;;;;30.73;6.60;;;31.30;99.90;;;;;;4993013;28;20093;-59
2023/08/07 12:39:15;;;;;;;28.67;6.00;;;31.40;99.90;;;;;;4989325;28;20166;-60